Yerington, Nevada Weather observations

Data are for observation ending at time listed.
 Day   Time    Ave.   Ave.  Ave.  Vector   Max.   Stn.    Total    Solar   Ave.  
  of    of     Air    Rel.  Wind   Wind    Wind   Baro.  Precip.   Rad.    Soil  
Year   Day     Temp.  Hum.  Speed  Dir.    Gust   Pres.                    Temp. 
2014   (PST)    F      %     mph   deg.    mph     mb.     in.     W/m2     F   
------------------------------------------------------------------------------
 262    0:00   57.5    74    2.1   185      4.5   865.5    0.00       0    76.4
 262    0:10   57.7    75    2.3   192      4.3   865.5    0.00       0    76.3
 262    0:20   57.7    74    2.8   149      4.0   865.5    0.00       0    76.1
 262    0:30   58.1    72    2.5   126      5.2   865.6    0.00       0    75.9
 262    0:40   58.1    70    1.9   137      3.7   865.7    0.00       0    75.7
 262    0:50   58.2    71    0.0     0      0.0   865.7    0.00       0    75.6
 262    1:00   57.6    74    0.3   160      1.5   865.8    0.00       0    75.5
 262    1:10   57.1    76    0.1   160      0.9   865.8    0.00       0    75.6
 262    1:20   56.7    78    0.1   160      1.1   865.8    0.00       0    75.6
 262    1:30   57.1    74    0.8   169      2.2   865.8    0.00       0    75.4
 262    1:40   57.8    71    0.2   216      1.6   865.7    0.00       0    75.2
 262    1:50   57.8    71    0.6   174      2.9   865.8    0.00       0    75.0
 262    2:00   57.4    72    2.0   165      3.0   865.9    0.00       0    74.9
 262    2:10   56.9    74    1.9   179      3.0   865.9    0.00       0    74.9
 262    2:20   56.9    73    0.9   187      1.9   865.8    0.00       0    74.9
 262    2:30   56.5    74    1.1   187      2.0   865.9    0.00       0    74.8
 262    2:40   55.9    75    1.1   192      2.4   865.9    0.00       0    74.8
 262    2:50   55.5    76    1.6   184      2.5   865.9    0.00       0    74.8
 262    3:00   55.0    77    0.9   160      2.3   865.8    0.00       0    74.7
 262    3:10   54.8    77    2.0   160      3.0   865.9    0.00       0    74.7
 262    3:20   54.7    76    2.1   151      3.6   866.0    0.00       0    74.5
 262    3:30   54.5    77    1.3   147      2.6   866.0    0.00       0    74.3
 262    3:40   54.3    77    0.4   154      1.8   866.0    0.00       0    74.2
 262    3:50   53.6    79    0.0     0      0.0   866.0    0.00       0    74.1
 262    4:00   53.1    80    0.1   156      1.3   866.2    0.00       0    74.0
 262    4:10   52.8    81    0.7   173      2.4   866.2    0.00       0    73.9
 262    4:20   52.3    82    2.4   212      4.1   866.3    0.00       0    73.6
 262    4:30   52.6    80    2.9   200      5.4   866.4    0.00       0    73.4
 262    4:40   52.6    78    2.2   168      4.2   866.5    0.00       0    73.1
 262    4:50   52.1    78    1.5   170      2.7   866.6    0.00       0    73.0
 262    5:00   52.1    77    1.6   192      2.9   866.7    0.00       0    72.9
 262    5:10   52.0    77    2.4   187      3.7   866.8    0.00       0    72.9
 262    5:20   52.2    75    2.4   196      5.0   866.8    0.00       0    72.6
 262    5:30   52.1    75    2.5   166      4.2   866.9    0.00       1    72.4
 262    5:40   52.1    74    2.2   180      5.0   867.0    0.00       4    72.2
 262    5:50   51.5    76    2.1   190      2.9   867.1    0.00       9    72.1
 262    6:00   51.0    76    2.5   195      4.3   867.3    0.00      19    71.9
 262    6:10   51.4    76    2.5   200      4.8   867.3    0.00      32    71.8
 262    6:20   52.2    76    2.4   171      4.7   867.4    0.00      67    71.5
 262    6:30   53.6    71    3.1   157      4.6   867.6    0.00      96    71.1
 262    6:40   54.4    68    2.1   151      3.9   867.7    0.00     109    70.6
 262    6:50   55.1    65    1.9   182      3.6   867.7    0.00     129    70.3
 262    7:00   55.7    64    3.1   200      5.0   867.7    0.00     183    70.0
 262    7:10   56.0    65    2.8   202      5.4   867.8    0.00     211    69.7
 262    7:20   57.2    66    3.1   203      5.6   867.8    0.00     248    69.5
 262    7:30   58.8    66    2.7   202      5.8   867.8    0.00     286    69.2
 262    7:40   60.4    64    2.6   187      4.7   867.8    0.00     319    69.0
 262    7:50   61.7    60    3.4   172      5.6   867.9    0.00     348    68.8
 262    8:00   62.4    57    3.4   178      5.8   868.0    0.00     385    68.8
 262    8:10   63.8    56    2.9   193      4.7   868.0    0.00     421    68.8
 262    8:20   64.9    56    2.6   196      5.1   868.1    0.00     451    68.6
 262    8:30   66.3    51    2.0   190      3.6   868.2    0.00     482    68.6
 262    8:40   68.2    47    1.7   214      2.9   868.2    0.00     514    68.5
 262    8:50   69.2    43    1.4   221      2.8   868.2    0.00     544    68.4
 262    9:00   70.4    39    2.0   303      5.2   868.1    0.00     570    68.5
 262    9:10   70.0    39    1.8   313      4.1   868.1    0.00     598    68.7
 262    9:20   70.4    38    1.8   312      3.8   868.1    0.00     625    69.1
 262    9:30   71.6    36    1.5   352      3.8   868.0    0.00     652    69.6
 262    9:40   72.0    34    1.4   325      3.9   868.0    0.00     672    70.0
 262    9:50   73.7    32    1.2    25      4.2   867.9    0.00     694    70.3
 262   10:00   73.9    32    2.0   133      5.4   867.9    0.00     717    70.7
 262   10:10   73.1    33    2.9    38      6.9   867.8    0.00     731    71.3
 262   10:20   74.0    32    1.2   236      3.1   867.8    0.00     752    71.9
 262   10:30   74.3    32    2.5   339      5.8   867.8    0.00     768    72.2
 262   10:40   74.3    32    3.5   327      8.1   867.7    0.00     782    72.8
 262   10:50   73.7    32    4.4   308      7.8   867.6    0.00     798    73.4
 262   11:00   74.2    31    2.0    10      5.2   867.5    0.00     805    74.0
 262   11:10   75.1    30    4.2   320      9.8   867.4    0.00     810    74.6
 262   11:20   75.3    31    4.8   334     10.8   867.3    0.00     823    75.1
 262   11:30   75.6    30    3.7   355      7.8   867.2    0.00     827    75.7
 262   11:40   76.1    30    3.0   345      7.3   867.2    0.00     831    76.2
 262   11:50   76.3    30    6.0   327     12.0   867.0    0.00     831    76.7
 262   12:00   77.2    28    3.7     7      8.0   867.0    0.00     831    77.3
 262   12:10   77.0    28    4.5   326      9.9   866.8    0.00     830    77.8
 262   12:20   77.5    28    5.0   335     10.7   866.7    0.00     823    78.4
 262   12:30   78.2    27    4.5   334     12.7   866.6    0.00     820    78.9
 262   12:40   77.8    27    5.9   320     15.1   866.4    0.00     811    79.4
 262   12:50   79.3    26    6.0   360     12.4   866.3    0.00     799    80.0
 262   13:00   79.4    26    5.6     5     15.5   866.2    0.00     783    80.3
 262   13:10   79.9    26    5.5     7     13.7   866.0    0.00     767    80.7
 262   13:20   80.0    24    5.1    28     10.6   866.0    0.00     753    81.1
 262   13:30   79.7    25    6.8   333     14.9   865.8    0.00     736    81.3
 262   13:40   80.3    25    4.4   335      9.5   865.6    0.00     717    81.9
 262   13:50   81.8    22    3.2    10      7.1   865.6    0.00     698    82.0
 262   14:00   81.5    23    6.4   342     12.0   865.5    0.00     674    82.2
 262   14:10   81.0    24    5.5   328     10.3   865.3    0.00     652    82.6
 262   14:20   81.8    22    4.7   345     10.6   865.2    0.00     628    83.0
 262   14:30   82.2    21    4.8   351     11.5   865.1    0.00     600    83.2
 262   14:40   83.2    21    4.1    26      9.3   865.1    0.00     575    83.3
 262   14:50   83.7    20    4.3    35     11.6   865.0    0.00     549    83.6
 262   15:00   83.5    21    4.4    13     10.4   864.9    0.00     520    83.9
 262   15:10   83.2    21    4.9    12     10.7   864.9    0.00     492    84.2
 262   15:20   83.8    20    3.2    28      8.4   864.8    0.00     459    84.4
 262   15:30   84.0    20    3.9   358      9.5   864.7    0.00     427    84.6
 262   15:40   83.4    20    4.4     7      9.5   864.7    0.00     389    84.8
 262   15:50   83.0    20    4.9     2     10.3   864.6    0.00     334    85.1
 262   16:00   83.6    20    3.2    21      7.8   864.7    0.00     323    85.3
 262   16:10   83.8    20    3.5     9      8.0   864.6    0.00     289    85.5
 262   16:20   83.1    21    4.4     9      8.4   864.6    0.00     257    85.6
 262   16:30   82.2    22    4.9     5      8.6   864.6    0.00     224    85.7
 262   16:40   81.9    22    5.0    10      8.6   864.6    0.00     192    85.9
 262   16:50   81.9    22    3.2     3      6.9   864.5    0.00     155    86.0
 262   17:00   82.6    20    3.0    27      7.6   864.5    0.00     127    85.9
 262   17:10   82.0    20    3.5    11      6.2   864.5    0.00      96    85.7
 262   17:20   80.7    22    3.3    10      5.8   864.5    0.00      53    85.7
 262   17:30   79.4    22    3.0    12      5.7   864.6    0.00      22    85.8
 262   17:40   78.3    24    2.8     4      5.1   864.7    0.00      13    85.9
 262   17:50   76.8    26    2.1   336      3.5   864.7    0.00       6    85.9
 262   18:00   74.2    30    2.1   327      3.1   864.7    0.00       2    86.0
 262   18:10   73.0    31    2.6   324      3.5   864.7    0.00       0    86.0
 262   18:20   72.5    31    2.5   319      3.5   864.7    0.00       0    85.9
 262   18:30   72.3    30    2.7   320      3.8   864.8    0.00       0    85.6
 262   18:40   71.5    32    1.1   337      3.1   864.9    0.00       0    85.3
 262   18:50   71.4    31    1.1   333      2.7   865.0    0.00       0    85.0
 262   19:00   71.3    32    1.7   326      3.0   865.1    0.00       0    84.6
 262   19:10   70.2    33    0.7   335      1.8   865.1    0.00       0    84.3
 262   19:20   69.7    34    1.0   354      2.2   865.2    0.00       0    84.1
 262   19:30   69.7    34    0.5   348      1.6   865.3    0.00       0    83.8
 262   19:40   68.5    38    0.1   208      1.3   865.4    0.00       0    83.5
 262   19:50   67.4    39    0.0     0      0.0   865.5    0.00       0    83.3
 262   20:00   67.4    39    0.0     0      0.0   865.6    0.00       0    83.1
 262   20:10   66.4    41    0.0     0      0.0   865.5    0.00       0    82.9
 262   20:20   65.2    46    0.1   208      1.1   865.6    0.00       0    82.7
 262   20:30   64.2    47    0.0     0      0.0   865.7    0.00       0    82.5
 262   20:40   64.0    46    0.0     0      0.0   865.8    0.00       0    82.2
 262   20:50   63.5    48    0.3   208      1.5   865.8    0.00       0    81.8
 262   21:00   62.6    50    1.5   208      2.9   865.9    0.00       0    81.6
 262   21:10   61.6    51    1.3   221      4.7   866.0    0.00       0    81.3
 262   21:20   61.4    52    1.3   186      2.6   866.1    0.00       0    81.0
 262   21:30   61.5    51    1.6   190      2.4   866.1    0.00       0    80.7
 262   21:40   62.6    47    2.7   183      4.1   866.2    0.00       0    80.4
 262   21:50   62.5    48    1.7   193      3.4   866.3    0.00       0    80.0
 262   22:00   62.0    48    1.3   188      2.9   866.3    0.00       0    79.6
 262   22:10   61.1    50    3.0   171      4.8   866.3    0.00       0    79.5
 262   22:20   61.6    48    3.3   168      5.7   866.4    0.00       0    79.1
 262   22:30   61.1    49    1.7   135      4.1   866.3    0.00       0    78.7
 262   22:40   60.5    50    0.9   166      2.7   866.4    0.00       0    78.5
 262   22:50   60.0    51    0.8   186      2.2   866.4    0.00       0    78.5
 262   23:00   59.3    52    2.1   182      3.8   866.5    0.00       0    78.3
 262   23:10   59.6    50    1.7   227      3.4   866.5    0.00       0    78.2
 262   23:20   59.9    50    0.7   165      2.3   866.5    0.00       0    77.8
 262   23:30   59.8    50    0.7   107      3.0   866.4    0.00       0    77.6
 262   23:40   59.0    52    0.4   168      1.8   866.4    0.00       0    77.4

Return to Yerington, Nevada graphs page.


Western Regional Climate Center,wrcc@dri.edu